Time;durP1;ratioP1;P1;durP2;ratioP2;P2;SDS_P1;SDS_P2;PMS_P1;PMS_P2;Temp;Humidity;BMP_temperature;BMP_pressure;BME280_temperature;BME280_humidity;BME280_pressure;Samples;Min_cycle;Max_cycle;Signal;HPM_P1;HPM_P2
2023/07/10 00:00:51;;;;;;;22.60;14.47;;;24.70;95.00;;;;;;5073017;28;20486;-55
2023/07/10 00:03:17;;;;;;;16.03;13.13;;;24.70;94.80;;;;;;5073357;28;20832;-55
2023/07/10 00:05:44;;;;;;;16.73;14.27;;;24.70;94.80;;;;;;5072632;28;20444;-55
2023/07/10 00:08:11;;;;;;;21.50;12.30;;;24.70;94.60;;;;;;5073298;28;20452;-55
2023/07/10 00:10:38;;;;;;;17.33;14.77;;;24.70;94.60;;;;;;5073183;28;20467;-55
2023/07/10 00:13:06;;;;;;;17.50;13.70;;;24.70;94.60;;;;;;5073215;28;20464;-55
2023/07/10 00:15:33;;;;;;;16.80;13.63;;;24.60;94.50;;;;;;5072946;28;20555;-55
2023/07/10 00:17:59;;;;;;;16.33;13.00;;;24.50;94.60;;;;;;5072957;28;20992;-55
2023/07/10 00:20:28;;;;;;;20.37;14.17;;;24.50;94.70;;;;;;5072795;28;20464;-55
2023/07/10 00:22:55;;;;;;;23.27;15.20;;;24.40;94.90;;;;;;5072828;28;20451;-55
2023/07/10 00:25:22;;;;;;;27.27;15.67;;;24.40;95.00;;;;;;5073931;28;20456;-55
2023/07/10 00:27:50;;;;;;;25.70;15.70;;;24.30;95.70;;;;;;5072790;28;20938;-55
2023/07/10 00:30:21;;;;;;;22.93;15.67;;;24.20;95.80;;;;;;5073581;28;20452;-55
2023/07/10 00:32:52;;;;;;;20.40;14.70;;;24.10;96.10;;;;;;5072702;28;20469;-55
2023/07/10 00:35:19;;;;;;;23.17;15.03;;;24.00;96.60;;;;;;5072937;28;20512;-55
2023/07/10 00:37:49;;;;;;;17.73;15.90;;;23.90;96.80;;;;;;5073044;28;20502;-55
2023/07/10 00:40:19;;;;;;;20.00;16.67;;;23.80;97.10;;;;;;5073007;28;20532;-55
2023/07/10 00:42:47;;;;;;;18.50;16.13;;;23.80;97.40;;;;;;5072714;28;20492;-55
2023/07/10 00:45:15;;;;;;;19.67;16.37;;;23.70;97.70;;;;;;5073016;28;20531;-55
2023/07/10 00:47:53;;;;;;;19.07;17.00;;;23.60;97.70;;;;;;5072953;28;20457;-55
2023/07/10 00:50:23;;;;;;;19.70;18.03;;;23.60;97.80;;;;;;5072922;28;20486;-55
2023/07/10 00:52:50;;;;;;;19.83;18.10;;;23.50;97.80;;;;;;5072754;28;20467;-55
2023/07/10 00:55:21;;;;;;;22.00;19.67;;;23.50;97.80;;;;;;5072790;28;20498;-55
2023/07/10 00:57:51;;;;;;;21.47;19.47;;;23.40;98.10;;;;;;5073652;28;20432;-55
2023/07/10 01:00:19;;;;;;;21.97;19.83;;;23.40;98.20;;;;;;5073470;28;20449;-55
2023/07/10 01:02:48;;;;;;;21.40;19.40;;;23.30;98.30;;;;;;5072639;28;20484;-55
2023/07/10 01:05:17;;;;;;;22.07;19.67;;;23.40;98.40;;;;;;5072826;28;20445;-55
2023/07/10 01:07:48;;;;;;;21.93;19.70;;;23.40;98.30;;;;;;5072695;28;20449;-55
2023/07/10 01:10:15;;;;;;;22.30;20.00;;;23.40;98.00;;;;;;5072746;28;20433;-55
2023/07/10 01:12:43;;;;;;;24.03;18.57;;;23.50;97.90;;;;;;5072642;28;20464;-55
2023/07/10 01:15:11;;;;;;;19.60;17.73;;;23.50;97.90;;;;;;5072535;28;20464;-55
2023/07/10 01:17:38;;;;;;;21.57;18.93;;;23.50;97.40;;;;;;5074128;28;20543;-55
2023/07/10 01:20:29;;;;;;;21.17;18.83;;;23.60;97.50;;;;;;5076131;28;20463;-55
2023/07/10 01:22:59;;;;;;;21.13;18.00;;;23.60;97.40;;;;;;5075884;28;21019;-55
2023/07/10 01:25:27;;;;;;;18.80;17.10;;;23.60;97.30;;;;;;5076087;28;20846;-55
2023/07/10 01:27:53;;;;;;;20.60;18.70;;;23.60;97.10;;;;;;5076211;28;20448;-55
2023/07/10 01:30:26;;;;;;;20.77;18.57;;;23.60;97.10;;;;;;5076960;28;20448;-55
2023/07/10 01:32:54;;;;;;;20.80;19.00;;;23.60;97.00;;;;;;5076205;28;20529;-55
2023/07/10 01:35:22;;;;;;;21.40;19.40;;;23.50;97.40;;;;;;5076138;28;20452;-55
2023/07/10 01:37:49;;;;;;;21.90;19.77;;;23.60;97.10;;;;;;5076119;28;20457;-55
2023/07/10 01:40:25;;;;;;;22.47;20.13;;;23.50;96.90;;;;;;5075989;28;20452;-55
2023/07/10 01:42:52;;;;;;;21.90;19.80;;;23.60;96.80;;;;;;5075884;28;20484;-55
2023/07/10 01:45:19;;;;;;;24.87;22.20;;;23.60;96.80;;;;;;5075888;28;20445;-55
2023/07/10 01:47:46;;;;;;;23.87;21.63;;;23.50;96.90;;;;;;5075842;28;20451;-54
2023/07/10 01:50:12;;;;;;;27.67;20.83;;;23.60;96.90;;;;;;5075863;28;20451;-54
2023/07/10 01:52:39;;;;;;;22.07;19.73;;;23.60;96.80;;;;;;5075347;28;20814;-54
2023/07/10 01:55:06;;;;;;;23.63;21.03;;;23.60;96.80;;;;;;5075722;28;20453;-54
2023/07/10 01:57:34;;;;;;;26.10;23.30;;;23.70;96.90;;;;;;5075683;28;20531;-54
2023/07/10 02:00:01;;;;;;;24.20;21.70;;;23.60;96.40;;;;;;5075409;28;20444;-55
2023/07/10 02:02:28;;;;;;;24.87;22.27;;;23.50;96.50;;;;;;5075916;28;20488;-54
2023/07/10 02:04:55;;;;;;;25.67;23.07;;;23.40;96.70;;;;;;5075567;28;20448;-54
2023/07/10 02:07:21;;;;;;;28.17;23.00;;;23.30;96.70;;;;;;5075267;28;20815;-55
2023/07/10 02:09:48;;;;;;;25.50;23.10;;;23.30;97.00;;;;;;5075330;28;20961;-55
2023/07/10 02:12:15;;;;;;;26.80;24.10;;;23.20;97.10;;;;;;5075384;28;20433;-55
2023/07/10 02:14:45;;;;;;;24.50;22.20;;;23.20;97.10;;;;;;5075084;28;20963;-55
2023/07/10 02:17:11;;;;;;;28.53;23.20;;;23.10;97.30;;;;;;5075322;28;20472;-55
2023/07/10 02:19:38;;;;;;;23.83;21.53;;;23.10;97.10;;;;;;5074948;28;20495;-55
2023/07/10 02:22:05;;;;;;;25.13;22.73;;;23.00;97.30;;;;;;5075132;28;20511;-55
2023/07/10 02:24:32;;;;;;;29.10;22.27;;;23.00;97.30;;;;;;5075258;28;20449;-55
2023/07/10 02:26:59;;;;;;;28.47;22.83;;;23.10;97.40;;;;;;5075283;28;20452;-55
2023/07/10 02:29:25;;;;;;;24.60;22.07;;;23.00;97.50;;;;;;5074333;28;20502;-55
2023/07/10 02:31:53;;;;;;;29.23;23.10;;;23.10;97.70;;;;;;5075108;28;20441;-55
2023/07/10 02:34:20;;;;;;;25.57;22.90;;;23.00;97.80;;;;;;5075562;28;20469;-55
2023/07/10 02:36:47;;;;;;;23.23;20.93;;;23.00;97.90;;;;;;5074613;28;20447;-55
2023/07/10 02:39:13;;;;;;;25.93;22.77;;;23.00;97.90;;;;;;5075065;28;20860;-55
2023/07/10 02:41:40;;;;;;;27.53;21.10;;;22.90;98.00;;;;;;5075385;28;20495;-55
2023/07/10 02:44:07;;;;;;;25.20;21.23;;;22.80;97.90;;;;;;5074791;28;20467;-55
2023/07/10 02:46:33;;;;;;;27.60;20.40;;;22.80;98.10;;;;;;5074853;28;20680;-55
2023/07/10 02:49:01;;;;;;;25.83;19.30;;;22.80;97.90;;;;;;5074894;28;20455;-55
2023/07/10 02:51:28;;;;;;;24.97;22.27;;;22.80;98.00;;;;;;5074756;28;20452;-55
2023/07/10 02:53:54;;;;;;;29.47;20.20;;;22.70;97.80;;;;;;5074476;28;20469;-55
2023/07/10 02:56:21;;;;;;;23.20;20.80;;;22.70;98.00;;;;;;5074693;28;20444;-55
2023/07/10 02:58:50;;;;;;;21.73;19.60;;;22.70;98.10;;;;;;5074598;28;20479;-55
2023/07/10 03:01:16;;;;;;;23.63;21.20;;;22.70;97.90;;;;;;5074465;28;20543;-55
2023/07/10 03:03:45;;;;;;;23.70;21.00;;;22.70;98.10;;;;;;5074432;28;20472;-55
2023/07/10 03:06:14;;;;;;;22.97;20.57;;;22.70;98.30;;;;;;5074480;28;20492;-55
2023/07/10 03:08:41;;;;;;;22.00;19.77;;;22.60;98.10;;;;;;5074458;28;20535;-55
2023/07/10 03:11:11;;;;;;;23.93;21.40;;;22.70;98.00;;;;;;5074278;28;20485;-55
2023/07/10 03:13:37;;;;;;;25.10;21.43;;;22.70;98.30;;;;;;5073824;28;20847;-55
2023/07/10 03:16:06;;;;;;;25.23;21.40;;;22.60;98.50;;;;;;5074280;28;20452;-55
2023/07/10 03:18:32;;;;;;;23.90;21.40;;;22.60;98.30;;;;;;5073969;28;20468;-55
2023/07/10 03:20:59;;;;;;;25.90;21.03;;;22.50;98.00;;;;;;5074118;28;20429;-55
2023/07/10 03:23:28;;;;;;;23.10;20.50;;;22.50;97.90;;;;;;5073866;28;20852;-55
2023/07/10 03:25:55;;;;;;;24.40;19.13;;;22.50;98.00;;;;;;5073958;28;20447;-55
2023/07/10 03:28:22;;;;;;;24.23;17.80;;;22.50;97.90;;;;;;5073962;28;20449;-55
2023/07/10 03:30:49;;;;;;;21.10;17.10;;;22.40;97.60;;;;;;5073452;28;20942;-55
2023/07/10 03:33:19;;;;;;;17.87;16.20;;;22.40;97.60;;;;;;5073852;28;20464;-55
2023/07/10 03:35:48;;;;;;;19.93;17.80;;;22.30;97.20;;;;;;5073892;28;20483;-55
2023/07/10 03:38:16;;;;;;;21.63;16.63;;;22.30;97.30;;;;;;5073777;28;20819;-55
2023/07/10 03:40:50;;;;;;;17.50;15.33;;;22.30;97.60;;;;;;5073516;28;20502;-55
2023/07/10 03:43:17;;;;;;;17.60;15.90;;;22.30;97.70;;;;;;5073570;28;20487;-55
2023/07/10 03:45:44;;;;;;;21.20;15.90;;;22.30;97.50;;;;;;5073312;28;20474;-55
2023/07/10 03:48:11;;;;;;;16.33;14.63;;;22.30;97.60;;;;;;5073464;28;20452;-55
2023/07/10 03:50:37;;;;;;;16.37;13.67;;;22.30;97.50;;;;;;5073524;28;20456;-55
2023/07/10 03:53:04;;;;;;;15.30;12.13;;;22.20;97.20;;;;;;5073426;28;20486;-55
2023/07/10 03:55:31;;;;;;;14.87;12.03;;;22.10;97.10;;;;;;5073460;28;20449;-55
2023/07/10 03:57:59;;;;;;;14.13;12.27;;;22.10;97.40;;;;;;5073400;28;20506;-55
2023/07/10 04:00:26;;;;;;;15.30;11.47;;;22.00;97.30;;;;;;5073439;28;20449;-55
2023/07/10 04:02:52;;;;;;;13.67;10.67;;;22.00;97.30;;;;;;5073680;28;20603;-55
2023/07/10 04:05:19;;;;;;;14.80;10.27;;;21.90;97.30;;;;;;5073285;28;20453;-55
2023/07/10 04:07:46;;;;;;;15.77;11.07;;;21.90;97.50;;;;;;5072957;28;20447;-55
2023/07/10 04:10:12;;;;;;;14.13;10.70;;;21.80;97.30;;;;;;5073261;28;20555;-55
2023/07/10 04:12:41;;;;;;;17.83;11.13;;;21.90;97.50;;;;;;5073171;28;20467;-56
2023/07/10 04:15:10;;;;;;;16.83;10.87;;;21.80;97.10;;;;;;5073248;28;20488;-56
2023/07/10 04:17:36;;;;;;;14.53;10.43;;;21.80;97.50;;;;;;5072833;28;20864;-56
2023/07/10 04:20:04;;;;;;;13.93;10.23;;;21.80;97.50;;;;;;5073273;28;20456;-56
2023/07/10 04:22:31;;;;;;;11.90;9.73;;;21.80;97.50;;;;;;5073044;28;20491;-56
2023/07/10 04:25:03;;;;;;;17.43;9.40;;;21.80;97.60;;;;;;5073372;28;20452;-56
2023/07/10 04:27:31;;;;;;;12.60;9.03;;;21.80;97.70;;;;;;5073151;28;20433;-55
2023/07/10 04:29:57;;;;;;;10.93;9.57;;;21.70;97.50;;;;;;5073026;28;20532;-55
2023/07/10 04:32:25;;;;;;;18.30;9.97;;;21.70;97.50;;;;;;5072888;28;20461;-55
2023/07/10 04:34:52;;;;;;;17.87;10.07;;;21.70;97.70;;;;;;5072874;28;20460;-55
2023/07/10 04:37:19;;;;;;;13.47;9.43;;;21.70;97.60;;;;;;5073109;28;20502;-55
2023/07/10 04:39:45;;;;;;;14.73;11.70;;;21.80;97.70;;;;;;5072964;28;20449;-55
2023/07/10 04:42:12;;;;;;;12.87;9.13;;;21.80;97.40;;;;;;5072824;28;20480;-55
2023/07/10 04:44:39;;;;;;;12.00;9.20;;;21.80;97.30;;;;;;5072907;28;20552;-55
2023/07/10 04:47:06;;;;;;;12.20;10.90;;;21.70;97.10;;;;;;5072860;28;20451;-55
2023/07/10 04:49:34;;;;;;;13.00;9.57;;;21.80;97.70;;;;;;5072750;28;20494;-55
2023/07/10 04:52:01;;;;;;;12.80;8.40;;;21.70;97.20;;;;;;5073455;28;20472;-55
2023/07/10 04:54:27;;;;;;;11.80;8.80;;;21.80;97.20;;;;;;5076931;28;20449;-55
2023/07/10 04:56:54;;;;;;;11.03;8.50;;;21.80;97.30;;;;;;5076807;28;20455;-55
2023/07/10 04:59:21;;;;;;;11.73;8.73;;;21.90;96.90;;;;;;5076846;28;20551;-55
2023/07/10 05:01:47;;;;;;;9.60;7.40;;;21.90;96.70;;;;;;5077782;28;20456;-55
2023/07/10 05:04:14;;;;;;;12.80;9.17;;;21.90;96.70;;;;;;5076254;28;20850;-55
2023/07/10 05:06:42;;;;;;;11.00;8.00;;;21.90;96.80;;;;;;5076683;28;20460;-55
2023/07/10 05:09:09;;;;;;;10.60;8.03;;;21.90;96.70;;;;;;5076658;28;20554;-55
2023/07/10 05:11:35;;;;;;;11.30;7.63;;;21.90;96.70;;;;;;5076215;28;20942;-55
2023/07/10 05:14:02;;;;;;;10.40;7.73;;;21.90;96.30;;;;;;5076126;28;20876;-55
2023/07/10 05:16:30;;;;;;;11.00;7.80;;;22.00;96.30;;;;;;5076389;28;20451;-55
2023/07/10 05:18:57;;;;;;;10.60;7.73;;;22.10;96.10;;;;;;5076172;28;20487;-55
2023/07/10 05:21:24;;;;;;;11.37;7.13;;;22.00;96.10;;;;;;5076059;28;20598;-55
2023/07/10 05:23:52;;;;;;;12.60;7.63;;;22.10;96.00;;;;;;5076203;28;20489;-55
2023/07/10 05:26:20;;;;;;;12.63;7.77;;;22.20;95.70;;;;;;5076279;28;20449;-55
2023/07/10 05:28:47;;;;;;;11.70;7.80;;;22.20;95.40;;;;;;5076006;28;20476;-55
2023/07/10 05:31:14;;;;;;;10.47;6.80;;;22.20;95.40;;;;;;5076092;28;20448;-55
2023/07/10 05:33:42;;;;;;;12.63;8.40;;;22.20;95.10;;;;;;5076078;28;20468;-54
2023/07/10 05:36:11;;;;;;;12.63;8.10;;;22.20;95.20;;;;;;5075967;28;20480;-55
2023/07/10 05:38:38;;;;;;;10.33;8.13;;;22.20;95.10;;;;;;5075733;28;20875;-55
2023/07/10 05:41:06;;;;;;;10.37;7.93;;;22.20;94.80;;;;;;5075907;28;20455;-55
2023/07/10 05:43:34;;;;;;;12.50;8.70;;;22.10;95.00;;;;;;5075775;28;20495;-55
2023/07/10 05:46:02;;;;;;;10.90;7.60;;;22.10;95.10;;;;;;5075890;28;20455;-55
2023/07/10 05:48:29;;;;;;;9.33;7.57;;;22.10;94.90;;;;;;5075520;28;20946;-55
2023/07/10 05:50:56;;;;;;;12.47;7.10;;;22.20;95.00;;;;;;5075931;28;20482;-55
2023/07/10 05:53:23;;;;;;;12.00;8.03;;;22.20;94.90;;;;;;5075647;28;20465;-55
2023/07/10 05:55:52;;;;;;;13.70;7.77;;;22.20;95.00;;;;;;5075388;28;20938;-55
2023/07/10 05:58:22;;;;;;;8.13;6.53;;;22.20;94.70;;;;;;5075362;28;20452;-54
2023/07/10 06:00:52;;;;;;;10.60;7.10;;;22.20;94.80;;;;;;5075660;28;20525;-54
2023/07/10 06:03:19;;;;;;;8.83;7.13;;;22.20;95.00;;;;;;5074725;28;20488;-55
2023/07/10 06:05:54;;;;;;;7.23;6.50;;;22.30;95.10;;;;;;5075254;28;20463;-54
2023/07/10 06:08:20;;;;;;;10.37;7.50;;;22.40;95.00;;;;;;5075274;28;20905;-55
2023/07/10 06:10:47;;;;;;;10.67;6.80;;;22.50;94.60;;;;;;5075501;28;20447;-55
2023/07/10 06:13:14;;;;;;;8.77;6.20;;;22.60;94.20;;;;;;5075057;28;20461;-55
2023/07/10 06:15:43;;;;;;;12.83;7.40;;;22.70;93.40;;;;;;5075402;28;20502;-54
2023/07/10 06:18:10;;;;;;;10.60;7.20;;;22.80;93.50;;;;;;5075324;28;20449;-55
2023/07/10 06:20:37;;;;;;;10.10;7.20;;;22.80;93.40;;;;;;5075566;28;20911;-54
2023/07/10 06:23:04;;;;;;;7.43;6.37;;;22.70;93.00;;;;;;5075567;28;20490;-54
2023/07/10 06:25:31;;;;;;;10.13;6.30;;;22.80;93.40;;;;;;5075307;28;20456;-54
2023/07/10 06:27:58;;;;;;;9.83;6.00;;;22.90;93.40;;;;;;5075456;28;20455;-55
2023/07/10 06:30:24;;;;;;;9.50;5.73;;;22.90;92.70;;;;;;5075264;28;20491;-55
2023/07/10 06:32:52;;;;;;;6.67;5.37;;;22.90;92.40;;;;;;5075175;28;20468;-55
2023/07/10 06:35:19;;;;;;;8.50;6.03;;;22.80;92.40;;;;;;5075184;28;20457;-55
2023/07/10 06:37:46;;;;;;;12.30;6.30;;;22.70;92.60;;;;;;5075140;28;20449;-55
2023/07/10 06:40:15;;;;;;;9.20;5.13;;;22.80;93.00;;;;;;5076725;28;20444;-55
2023/07/10 06:42:42;;;;;;;7.87;5.40;;;22.80;92.90;;;;;;5076257;28;20469;-55
2023/07/10 06:45:12;;;;;;;6.43;4.77;;;22.90;91.70;;;;;;5075414;28;20449;-55
2023/07/10 06:47:41;;;;;;;7.83;4.37;;;22.90;91.00;;;;;;5074633;28;20448;-55
2023/07/10 06:50:10;;;;;;;5.60;4.80;;;23.00;90.50;;;;;;5074769;28;20471;-55
2023/07/10 06:52:39;;;;;;;10.03;5.10;;;23.10;90.60;;;;;;5074744;28;20846;-55
2023/07/10 06:55:07;;;;;;;6.60;4.90;;;23.20;90.40;;;;;;5074843;28;20539;-55
2023/07/10 06:57:33;;;;;;;6.13;4.50;;;23.20;90.00;;;;;;5074682;28;20453;-55
2023/07/10 07:00:01;;;;;;;6.00;4.97;;;23.30;90.10;;;;;;5074673;28;20864;-55
2023/07/10 07:02:27;;;;;;;9.80;5.17;;;23.30;88.50;;;;;;5074206;28;20475;-55
2023/07/10 07:04:54;;;;;;;6.90;4.40;;;23.30;87.20;;;;;;5074271;28;20495;-55
2023/07/10 07:07:22;;;;;;;9.00;4.80;;;23.40;88.10;;;;;;5074541;28;20476;-55
2023/07/10 07:09:49;;;;;;;6.67;5.27;;;23.50;87.70;;;;;;5074420;28;20449;-55
2023/07/10 07:12:15;;;;;;;6.87;5.10;;;23.60;87.50;;;;;;5075100;28;20564;-55
2023/07/10 07:14:42;;;;;;;10.30;5.97;;;23.80;87.10;;;;;;5074063;28;20445;-55
2023/07/10 07:17:09;;;;;;;8.10;5.67;;;23.90;86.50;;;;;;5074193;28;20452;-55
2023/07/10 07:19:35;;;;;;;6.83;5.53;;;24.00;85.90;;;;;;5073845;28;20472;-55
2023/07/10 07:22:03;;;;;;;7.93;4.70;;;24.10;84.60;;;;;;5074073;28;20444;-55
2023/07/10 07:24:31;;;;;;;5.83;4.43;;;24.10;84.90;;;;;;5073719;28;20579;-55
2023/07/10 07:26:59;;;;;;;5.60;4.00;;;24.20;83.50;;;;;;5074033;28;20455;-55
2023/07/10 07:29:27;;;;;;;5.67;4.37;;;24.20;82.30;;;;;;5073980;28;20452;-55
2023/07/10 07:31:54;;;;;;;6.13;4.50;;;24.30;83.10;;;;;;5073957;28;20444;-55
2023/07/10 07:34:21;;;;;;;5.30;4.50;;;24.50;83.70;;;;;;5073582;28;20514;-55
2023/07/10 07:36:50;;;;;;;5.63;4.07;;;24.50;82.80;;;;;;5073857;28;20459;-55
2023/07/10 07:39:17;;;;;;;6.37;3.43;;;24.70;82.30;;;;;;5073866;28;20448;-55
2023/07/10 07:41:45;;;;;;;4.80;3.23;;;24.80;80.50;;;;;;5073774;28;20499;-55
2023/07/10 07:44:12;;;;;;;6.33;3.50;;;24.90;78.90;;;;;;5073589;28;20547;-55
2023/07/10 07:46:39;;;;;;;5.10;3.07;;;25.00;78.20;;;;;;5073749;28;20453;-55
2023/07/10 07:49:06;;;;;;;5.17;3.67;;;25.20;78.30;;;;;;5073688;28;20444;-55
2023/07/10 07:51:32;;;;;;;3.27;3.00;;;25.40;77.80;;;;;;5073641;28;20449;-55
2023/07/10 07:54:04;;;;;;;3.43;3.13;;;25.60;76.50;;;;;;5073520;28;20465;-55
2023/07/10 07:56:31;;;;;;;5.43;3.37;;;25.70;74.70;;;;;;5073508;28;20452;-55
2023/07/10 07:58:59;;;;;;;4.37;2.70;;;25.90;75.20;;;;;;5073446;28;20452;-55
2023/07/10 08:01:25;;;;;;;8.93;3.00;;;26.00;69.30;;;;;;5073169;28;20942;-55
2023/07/10 08:03:52;;;;;;;7.23;3.63;;;25.90;68.00;;;;;;5073301;28;20488;-55
2023/07/10 08:06:20;;;;;;;5.37;2.50;;;26.00;69.00;;;;;;5073438;28;20507;-55
2023/07/10 08:08:47;;;;;;;3.20;2.87;;;26.20;70.70;;;;;;5073309;28;20460;-55
2023/07/10 08:11:13;;;;;;;7.53;3.70;;;26.30;67.90;;;;;;5073424;28;20453;-55
2023/07/10 08:13:40;;;;;;;4.37;2.70;;;26.40;69.60;;;;;;5073716;28;20476;-55
2023/07/10 08:16:08;;;;;;;3.93;2.57;;;26.50;69.10;;;;;;5073295;28;20447;-55
2023/07/10 08:18:35;;;;;;;5.27;3.07;;;26.70;66.20;;;;;;5072788;28;21000;-56
2023/07/10 08:21:02;;;;;;;5.10;3.00;;;26.90;64.80;;;;;;5072900;28;20954;-55
2023/07/10 08:23:29;;;;;;;6.83;3.00;;;27.00;63.40;;;;;;5072800;28;20506;-55
2023/07/10 08:25:55;;;;;;;2.70;2.40;;;26.90;60.50;;;;;;5072843;28;20943;-55
2023/07/10 08:28:22;;;;;;;3.20;2.73;;;26.90;60.90;;;;;;5072509;28;20459;-55
2023/07/10 08:30:49;;;;;;;5.43;2.63;;;27.00;63.50;;;;;;5073136;28;20456;-55
2023/07/10 08:33:17;;;;;;;3.40;2.67;;;27.20;62.20;;;;;;5072713;28;21012;-55
2023/07/10 08:35:43;;;;;;;3.03;2.53;;;27.20;59.00;;;;;;5073057;28;20453;-56
2023/07/10 08:38:10;;;;;;;2.83;2.10;;;27.30;59.50;;;;;;5073063;28;20509;-55
2023/07/10 08:40:41;;;;;;;3.53;1.80;;;27.40;57.30;;;;;;5073024;28;20443;-55
2023/07/10 08:43:19;;;;;;;3.90;2.10;;;27.40;57.80;;;;;;5072676;28;20476;-55
2023/07/10 08:45:48;;;;;;;2.83;1.40;;;27.50;54.80;;;;;;5073064;28;20424;-55
2023/07/10 08:48:28;;;;;;;2.97;2.00;;;27.70;57.40;;;;;;5072900;28;20457;-55
2023/07/10 08:50:59;;;;;;;2.53;1.40;;;27.90;54.90;;;;;;5072958;28;20425;-55
2023/07/10 08:53:31;;;;;;;2.83;1.80;;;28.10;55.10;;;;;;5073077;28;20510;-55
2023/07/10 08:56:04;;;;;;;4.03;1.73;;;28.40;55.60;;;;;;5073434;28;20491;-55
2023/07/10 08:58:35;;;;;;;4.77;2.23;;;28.70;53.20;;;;;;5072928;28;20431;-55
2023/07/10 09:01:05;;;;;;;4.50;2.03;;;28.90;52.20;;;;;;5073634;28;20439;-55
2023/07/10 09:03:40;;;;;;;4.13;1.87;;;29.10;51.20;;;;;;5072805;28;20492;-55
2023/07/10 09:06:16;;;;;;;2.50;1.40;;;29.30;51.20;;;;;;5072795;28;20436;-55
2023/07/10 09:08:44;;;;;;;1.80;1.37;;;29.40;49.10;;;;;;5072872;28;20795;-55
2023/07/10 09:11:12;;;;;;;3.03;1.57;;;29.30;46.30;;;;;;5072696;28;20448;-55
2023/07/10 09:13:41;;;;;;;3.70;1.97;;;29.20;46.60;;;;;;5072686;28;20526;-55
2023/07/10 09:16:14;;;;;;;4.10;1.80;;;29.20;46.60;;;;;;5072649;28;20484;-55
2023/07/10 09:18:47;;;;;;;3.90;1.57;;;29.20;46.00;;;;;;5072864;28;20826;-55
2023/07/10 09:21:17;;;;;;;2.97;1.50;;;29.20;46.00;;;;;;5072647;28;20783;-55
2023/07/10 09:23:45;;;;;;;1.80;1.30;;;29.10;48.10;;;;;;5072377;28;20495;-55
2023/07/10 09:26:15;;;;;;;4.80;1.67;;;29.20;47.10;;;;;;5072305;28;20444;-56
2023/07/10 09:28:45;;;;;;;2.17;1.90;;;29.40;48.20;;;;;;5072734;28;20436;-55
2023/07/10 09:31:25;;;;;;;2.23;1.47;;;29.60;47.20;;;;;;5072542;28;20961;-55
2023/07/10 09:34:00;;;;;;;3.60;1.73;;;29.60;44.70;;;;;;5072615;28;20498;-55
2023/07/10 09:36:27;;;;;;;3.30;1.70;;;29.50;45.40;;;;;;5072650;28;20428;-55
2023/07/10 09:38:57;;;;;;;2.80;1.47;;;29.60;46.20;;;;;;5074521;28;20448;-55
2023/07/10 09:41:25;;;;;;;2.30;1.37;;;29.90;47.00;;;;;;5076275;28;20459;-55
2023/07/10 09:43:55;;;;;;;2.97;1.53;;;30.00;46.40;;;;;;5075977;28;20484;-55
2023/07/10 09:46:24;;;;;;;3.73;1.63;;;30.00;45.60;;;;;;5075752;28;20806;-55
2023/07/10 09:48:54;;;;;;;3.40;1.93;;;30.20;44.60;;;;;;5076380;28;20448;-55
2023/07/10 09:51:21;;;;;;;2.50;1.60;;;30.30;43.90;;;;;;5075933;28;20917;-55
2023/07/10 09:53:52;;;;;;;2.30;1.10;;;30.40;44.60;;;;;;5075862;28;20460;-55
2023/07/10 09:56:27;;;;;;;2.80;1.60;;;30.70;43.60;;;;;;5076449;28;20500;-55
2023/07/10 09:58:54;;;;;;;3.60;1.90;;;31.00;43.00;;;;;;5075573;28;20505;-55
2023/07/10 10:01:25;;;;;;;2.67;1.67;;;31.10;42.20;;;;;;5075926;28;20534;-55
2023/07/10 10:03:54;;;;;;;2.37;1.57;;;31.20;41.00;;;;;;5075720;28;20492;-55
2023/07/10 10:06:23;;;;;;;3.40;1.93;;;31.30;40.90;;;;;;5075765;28;20448;-55
2023/07/10 10:08:51;;;;;;;4.00;1.93;;;31.30;40.70;;;;;;5075726;28;20481;-55
2023/07/10 10:11:18;;;;;;;3.00;1.80;;;31.20;41.10;;;;;;5075214;28;20448;-55
2023/07/10 10:13:49;;;;;;;6.53;1.87;;;31.30;42.90;;;;;;5075511;28;20464;-55
2023/07/10 10:16:24;;;;;;;2.50;1.60;;;31.70;44.10;;;;;;5075556;28;20447;-55
2023/07/10 10:18:57;;;;;;;4.23;2.27;;;32.30;43.00;;;;;;5075295;28;20487;-55
2023/07/10 10:21:25;;;;;;;10.83;2.70;;;32.80;41.50;;;;;;5075248;28;20440;-56
2023/07/10 10:23:57;;;;;;;5.10;2.00;;;33.00;39.90;;;;;;5075293;28;20472;-55
2023/07/10 10:26:39;;;;;;;2.13;1.43;;;33.40;39.10;;;;;;5075364;28;20433;-55
2023/07/10 10:29:22;;;;;;;2.90;1.90;;;33.80;38.50;;;;;;5075378;28;20420;-55
2023/07/10 10:31:55;;;;;;;2.53;1.70;;;34.30;36.00;;;;;;5075311;28;20431;-55
2023/07/10 10:34:33;;;;;;;2.90;1.90;;;34.60;35.60;;;;;;5075287;28;20487;-55
2023/07/10 10:37:17;;;;;;;2.33;1.97;;;35.00;35.20;;;;;;5075033;28;20430;-55
2023/07/10 10:39:52;;;;;;;2.30;1.40;;;35.30;35.50;;;;;;5075398;28;20443;-55
2023/07/10 10:42:26;;;;;;;3.27;2.00;;;35.30;34.30;;;;;;5075268;28;20507;-55
2023/07/10 10:45:00;;;;;;;2.23;1.53;;;35.20;33.00;;;;;;5075071;28;20472;-55
2023/07/10 10:47:39;;;;;;;3.50;1.93;;;35.50;33.80;;;;;;5075075;28;20431;-55
2023/07/10 10:50:29;;;;;;;4.40;2.00;;;35.90;32.60;;;;;;5074052;28;20902;-54
2023/07/10 10:53:08;;;;;;;2.10;1.80;;;36.20;30.50;;;;;;5074837;28;20464;-55
2023/07/10 10:55:39;;;;;;;3.17;1.73;;;36.60;30.70;;;;;;5074951;28;20441;-56
2023/07/10 10:58:25;;;;;;;3.10;1.43;;;37.10;30.80;;;;;;5074513;28;20640;-55
2023/07/10 11:01:25;;;;;;;2.50;1.67;;;37.50;29.00;;;;;;5074844;28;20216;-55
2023/07/10 11:03:55;;;;;;;3.20;1.97;;;37.10;29.20;;;;;;5074469;28;20225;-55
2023/07/10 11:06:45;;;;;;;4.30;1.90;;;36.80;29.60;;;;;;5075368;28;20560;-54
2023/07/10 11:09:17;;;;;;;3.60;1.60;;;36.90;30.00;;;;;;5074613;28;20201;-55
2023/07/10 11:11:44;;;;;;;3.23;1.70;;;37.30;28.90;;;;;;5074538;28;20193;-55
2023/07/10 11:14:12;;;;;;;2.23;1.50;;;37.00;28.50;;;;;;5073852;28;20711;-55
2023/07/10 11:16:39;;;;;;;3.85;1.80;;;37.00;30.20;;;;;;5074063;28;20683;-55
2023/07/10 11:19:09;;;;;;;4.30;1.60;;;37.50;29.60;;;;;;5074052;28;20209;-55
2023/07/10 11:21:35;;;;;;;3.67;1.40;;;37.80;27.40;;;;;;5074280;28;20198;-55
2023/07/10 11:24:18;;;;;;;5.20;2.00;;;37.40;28.50;;;;;;5074089;28;20222;-55
2023/07/10 11:26:51;;;;;;;2.60;1.50;;;37.00;28.30;;;;;;5074329;28;20190;-55
2023/07/10 11:29:27;;;;;;;3.10;2.00;;;37.50;28.60;;;;;;5074293;28;20222;-55
2023/07/10 11:31:55;;;;;;;4.05;1.75;;;38.00;26.50;;;;;;5074285;28;20186;-55
2023/07/10 11:34:38;;;;;;;4.55;1.92;;;38.10;26.00;;;;;;5073769;28;20722;-55
2023/07/10 11:37:05;;;;;;;2.53;1.73;;;37.60;26.50;;;;;;5073913;28;20185;-55
2023/07/10 11:39:35;;;;;;;3.57;2.07;;;37.00;27.30;;;;;;5073993;28;20568;-55
2023/07/10 11:42:24;;;;;;;4.90;1.73;;;37.20;27.00;;;;;;5091950;28;20197;-55
2023/07/10 11:44:55;;;;;;;2.50;1.47;;;37.10;26.30;;;;;;5089452;28;20220;-55
2023/07/10 11:47:28;;;;;;;2.80;1.80;;;37.10;28.10;;;;;;5093953;28;20201;-55
2023/07/10 11:50:22;;;;;;;1.63;1.40;;;37.80;28.00;;;;;;5094060;28;20190;-55
2023/07/10 11:53:06;;;;;;;5.25;2.33;;;38.90;26.00;;;;;;5093847;28;20229;-55
2023/07/10 11:55:42;;;;;;;2.97;1.48;;;39.10;26.20;;;;;;5094108;28;20208;-55
2023/07/10 11:58:25;;;;;;;3.20;1.50;;;39.60;26.20;;;;;;5093927;28;20181;-55
2023/07/10 12:00:58;;;;;;;5.38;1.92;;;40.30;25.00;;;;;;5093570;28;20189;-55
2023/07/10 12:03:25;;;;;;;2.70;1.65;;;40.90;24.50;;;;;;5093198;28;20312;-55
2023/07/10 12:05:52;;;;;;;5.68;1.63;;;41.60;22.70;;;;;;5093698;28;20217;-55
2023/07/10 12:08:19;;;;;;;4.40;1.63;;;41.90;23.30;;;;;;5093720;28;20208;-55
2023/07/10 12:10:49;;;;;;;3.47;1.77;;;42.20;22.50;;;;;;5093628;28;20208;-55
2023/07/10 12:13:20;;;;;;;1.50;1.10;;;42.90;23.30;;;;;;5093601;28;20225;-55
2023/07/10 12:15:48;;;;;;;3.80;1.48;;;43.40;20.50;;;;;;5093761;28;20192;-55
2023/07/10 12:18:18;;;;;;;2.22;1.45;;;43.70;20.20;;;;;;5093475;28;20208;-55
2023/07/10 12:20:50;;;;;;;2.22;1.48;;;43.80;20.40;;;;;;5093637;28;20189;-55
2023/07/10 12:23:17;;;;;;;2.40;1.40;;;43.70;20.00;;;;;;5093486;28;20234;-55
2023/07/10 12:25:49;;;;;;;2.67;1.80;;;43.30;19.90;;;;;;5093422;28;20223;-55
2023/07/10 12:28:17;;;;;;;2.63;1.35;;;42.60;21.10;;;;;;5093484;28;20181;-55
2023/07/10 12:30:48;;;;;;;4.22;1.27;;;41.90;21.00;;;;;;5093416;28;20567;-55
2023/07/10 12:33:47;;;;;;;3.75;1.60;;;41.60;21.60;;;;;;5093631;28;20240;-54
2023/07/10 12:36:25;;;;;;;2.20;1.52;;;40.70;22.40;;;;;;5031011;28;20183;-54
2023/07/10 12:38:54;;;;;;;3.85;1.75;;;39.70;23.80;;;;;;5084276;28;20249;-54
2023/07/10 12:41:22;;;;;;;3.70;2.10;;;38.60;24.70;;;;;;5093252;28;20287;-54
2023/07/10 12:43:49;;;;;;;3.25;1.77;;;37.50;26.20;;;;;;5093521;28;20274;-54
2023/07/10 12:46:21;;;;;;;5.80;1.70;;;37.80;26.00;;;;;;5093198;28;20216;-54
2023/07/10 12:48:53;;;;;;;3.97;1.85;;;38.60;25.70;;;;;;5093206;28;20211;-54